createdAt,value
2022-10-01T00:02:02.552Z,49.35
2022-10-01T00:04:29.529Z,47.80
2022-10-01T00:06:59.370Z,43.17
2022-10-01T00:09:26.688Z,53.60
2022-10-01T00:11:53.677Z,51.00
2022-10-01T00:14:20.856Z,48.17
2022-10-01T00:16:48.035Z,50.40
2022-10-01T00:19:15.259Z,49.20
2022-10-01T00:21:42.795Z,42.75
2022-10-01T00:24:12.194Z,44.10
2022-10-01T00:26:39.660Z,46.60
2022-10-01T00:29:07.749Z,38.80
2022-10-01T00:31:35.057Z,44.60
2022-10-01T00:34:05.615Z,43.55
2022-10-01T00:36:33.246Z,46.78
2022-10-01T00:39:00.973Z,41.00
2022-10-01T00:41:29.614Z,39.78
2022-10-01T00:43:58.610Z,42.70
2022-10-01T00:46:31.651Z,42.70
2022-10-01T00:49:01.561Z,44.83
2022-10-01T00:51:30.567Z,46.22
2022-10-01T00:54:01.357Z,41.70
2022-10-01T00:58:56.217Z,43.25
2022-10-01T01:01:24.783Z,45.97
2022-10-01T01:03:51.861Z,46.83
2022-10-01T01:06:18.846Z,43.95
2022-10-01T01:08:45.687Z,45.00
2022-10-01T01:11:30.113Z,40.55
2022-10-01T01:14:09.827Z,40.75
2022-10-01T01:16:39.276Z,46.45
2022-10-01T01:19:24.441Z,37.67
2022-10-01T01:21:59.230Z,44.42
2022-10-01T01:24:41.413Z,41.22
2022-10-01T01:27:08.207Z,42.42
2022-10-01T01:29:39.923Z,39.08
2022-10-01T01:32:14.895Z,39.75
2022-10-01T01:34:43.815Z,38.42
2022-10-01T01:37:12.828Z,37.13
2022-10-01T01:39:43.148Z,35.83
2022-10-01T01:42:14.461Z,37.15
2022-10-01T01:44:44.258Z,38.95
2022-10-01T01:47:11.852Z,36.40
2022-10-01T01:49:39.749Z,35.03
2022-10-01T01:52:15.858Z,37.67
2022-10-01T01:54:44.513Z,41.90
2022-10-01T01:57:15.407Z,37.97
2022-10-01T01:59:42.394Z,35.72
2022-10-01T02:02:13.723Z,36.50
2022-10-01T02:04:40.603Z,42.58
2022-10-01T02:07:16.740Z,38.33
2022-10-01T02:10:03.930Z,37.30
2022-10-01T02:12:50.150Z,38.45
2022-10-01T02:15:28.130Z,37.38
2022-10-01T02:18:09.672Z,40.67
2022-10-01T02:20:42.394Z,38.38
2022-10-01T02:23:11.570Z,34.45
2022-10-01T02:25:41.952Z,37.80
2022-10-01T02:28:13.027Z,38.50
2022-10-01T02:30:40.871Z,38.40
2022-10-01T02:33:10.010Z,39.90
2022-10-01T02:35:37.997Z,39.67
2022-10-01T02:38:05.819Z,39.45
2022-10-01T02:40:35.079Z,41.22
2022-10-01T02:43:13.728Z,43.85
2022-10-01T02:45:41.071Z,46.17
2022-10-01T02:48:10.303Z,45.00
2022-10-01T02:50:41.338Z,45.90
2022-10-01T02:53:13.591Z,46.63
2022-10-01T02:55:41.673Z,51.53
2022-10-01T02:58:08.910Z,45.25
2022-10-01T03:00:35.857Z,55.45
2022-10-01T03:03:02.834Z,49.00
2022-10-01T03:05:29.786Z,52.22
2022-10-01T03:07:56.794Z,54.53
2022-10-01T03:10:23.647Z,46.90
2022-10-01T03:12:51.171Z,51.15
2022-10-01T03:15:21.936Z,54.03
2022-10-01T03:17:52.688Z,48.53
2022-10-01T03:20:19.904Z,44.15
2022-10-01T03:22:47.452Z,49.13
2022-10-01T03:25:15.139Z,45.30
2022-10-01T03:27:42.383Z,46.88
2022-10-01T03:30:09.516Z,48.80
2022-10-01T03:32:36.482Z,44.22
2022-10-01T03:35:03.344Z,51.47
2022-10-01T03:37:30.247Z,44.67
2022-10-01T03:39:57.090Z,48.22
2022-10-01T03:42:23.919Z,48.47
2022-10-01T03:44:50.711Z,41.35
2022-10-01T03:47:17.583Z,41.70
2022-10-01T03:49:44.592Z,39.08
2022-10-01T03:52:11.434Z,35.30
2022-10-01T03:54:39.531Z,43.33
2022-10-01T03:57:06.970Z,38.55
2022-10-01T03:59:33.813Z,36.83
2022-10-01T04:02:00.808Z,36.42
2022-10-01T04:04:29.113Z,36.88
2022-10-01T04:06:56.056Z,35.40
2022-10-01T04:09:22.953Z,32.28
2022-10-01T04:11:49.828Z,40.95
2022-10-01T04:14:16.779Z,35.25
2022-10-01T04:16:44.286Z,38.35
2022-10-01T04:19:11.296Z,44.85
2022-10-01T04:21:39.216Z,45.17
2022-10-01T04:24:07.204Z,42.78
2022-10-01T04:26:34.357Z,40.30
2022-10-01T04:29:01.391Z,32.55
2022-10-01T04:31:32.345Z,36.53
2022-10-01T04:33:59.554Z,37.25
2022-10-01T04:36:26.457Z,35.63
2022-10-01T04:38:57.935Z,32.85
2022-10-01T04:41:26.444Z,35.58
2022-10-01T04:43:53.308Z,31.13
2022-10-01T04:46:20.603Z,32.45
2022-10-01T04:48:49.052Z,31.55
2022-10-01T04:51:16.447Z,40.20
2022-10-01T04:53:43.483Z,29.95
2022-10-01T04:56:10.812Z,33.42
2022-10-01T04:58:38.667Z,36.08
2022-10-01T05:01:05.863Z,32.53
2022-10-01T05:03:33.327Z,31.98
2022-10-01T05:06:00.409Z,38.83
2022-10-01T05:08:27.496Z,41.63
2022-10-01T05:10:54.421Z,37.33
2022-10-01T05:13:21.409Z,38.92
2022-10-01T05:15:49.124Z,36.17
2022-10-01T05:18:15.987Z,44.22
2022-10-01T05:20:42.989Z,44.88
2022-10-01T05:23:12.042Z,38.22
2022-10-01T05:25:39.053Z,63.97
2022-10-01T05:28:07.169Z,43.13
2022-10-01T05:30:35.294Z,51.55
2022-10-01T05:33:03.539Z,51.20
2022-10-01T05:35:30.964Z,50.88
2022-10-01T05:37:58.876Z,66.05
2022-10-01T05:40:27.909Z,53.35
2022-10-01T05:42:58.584Z,70.40
2022-10-01T05:45:27.442Z,51.15
2022-10-01T05:48:01.265Z,60.90
2022-10-01T05:50:31.493Z,59.53
2022-10-01T05:52:59.511Z,66.55
2022-10-01T05:55:26.977Z,64.75
2022-10-01T05:57:54.631Z,69.03
2022-10-01T06:00:22.969Z,51.22
2022-10-01T06:02:50.610Z,59.22
2022-10-01T06:05:17.657Z,54.60
2022-10-01T06:07:44.478Z,64.55
2022-10-01T06:10:11.431Z,65.05
2022-10-01T06:12:38.233Z,45.50
2022-10-01T06:15:05.367Z,51.80
2022-10-01T06:17:33.204Z,44.83
2022-10-01T06:20:00.131Z,48.13
2022-10-01T06:22:26.967Z,50.95
2022-10-01T06:24:56.699Z,51.55
2022-10-01T06:27:23.746Z,69.77
2022-10-01T06:29:50.652Z,57.72
2022-10-01T06:32:19.866Z,60.17
2022-10-01T06:34:46.813Z,87.45
2022-10-01T06:37:13.735Z,67.13
2022-10-01T06:39:40.643Z,81.13
2022-10-01T06:42:07.597Z,72.82
2022-10-01T06:44:34.490Z,59.97
2022-10-01T06:47:01.389Z,68.13
2022-10-01T06:49:28.174Z,93.40
2022-10-01T06:52:13.460Z,75.63
2022-10-01T06:54:40.313Z,128.20
2022-10-01T06:57:07.412Z,77.22
2022-10-01T06:59:36.497Z,74.40
2022-10-01T07:02:04.402Z,82.22
2022-10-01T07:04:31.312Z,77.57
2022-10-01T07:06:58.427Z,69.82
2022-10-01T07:09:25.622Z,65.45
2022-10-01T07:11:57.439Z,83.90
2022-10-01T07:14:24.403Z,76.07
2022-10-01T07:16:51.427Z,66.30
2022-10-01T07:19:18.412Z,140.23
2022-10-01T07:21:47.765Z,60.83
2022-10-01T07:24:14.668Z,73.95
2022-10-01T07:26:41.628Z,63.08
2022-10-01T07:29:10.589Z,66.25
2022-10-01T07:31:38.126Z,72.07
2022-10-01T07:34:05.437Z,139.82
2022-10-01T07:36:32.588Z,89.85
2022-10-01T07:39:01.013Z,128.50
2022-10-01T07:41:27.973Z,93.97
2022-10-01T07:43:54.872Z,56.22
2022-10-01T07:46:21.879Z,70.47
2022-10-01T07:48:49.623Z,74.80
2022-10-01T07:51:16.535Z,72.05
2022-10-01T07:53:43.516Z,79.38
2022-10-01T07:56:10.456Z,89.32
2022-10-01T07:58:37.346Z,75.38
2022-10-01T08:01:04.903Z,63.33
2022-10-01T08:03:32.058Z,68.30
2022-10-01T08:05:58.991Z,86.25
2022-10-01T08:08:26.036Z,71.88
2022-10-01T08:10:52.920Z,82.70
2022-10-01T08:13:20.569Z,76.10
2022-10-01T08:15:50.758Z,80.97
2022-10-01T08:18:17.832Z,76.47
2022-10-01T08:20:44.790Z,82.90
2022-10-01T08:23:13.018Z,78.88
2022-10-01T08:25:40.831Z,80.47
2022-10-01T08:28:09.216Z,80.82
2022-10-01T08:30:37.275Z,75.95
2022-10-01T08:33:04.180Z,88.68
2022-10-01T08:35:31.022Z,80.03
2022-10-01T08:38:01.747Z,75.70
2022-10-01T08:43:00.663Z,76.53
2022-10-01T08:45:35.203Z,74.90
2022-10-01T08:48:16.969Z,75.68
2022-10-01T08:51:00.754Z,75.45
2022-10-01T08:53:33.642Z,77.35
2022-10-01T08:56:01.853Z,83.47
2022-10-01T08:58:35.340Z,70.88
2022-10-01T09:01:02.248Z,74.30
2022-10-01T09:03:30.976Z,61.60
2022-10-01T09:06:16.697Z,66.90
2022-10-01T09:08:55.855Z,70.28
2022-10-01T09:11:23.667Z,67.72
2022-10-01T09:13:51.791Z,68.10
2022-10-01T09:16:22.320Z,67.32
2022-10-01T09:21:21.172Z,65.28
2022-10-01T09:23:55.460Z,62.05
2022-10-01T09:26:25.639Z,61.50
2022-10-01T09:28:53.895Z,62.58
2022-10-01T09:31:47.284Z,64.15
2022-10-01T09:34:15.738Z,65.82
2022-10-01T09:36:54.741Z,68.07
2022-10-01T09:39:31.917Z,68.78
2022-10-01T09:41:59.859Z,67.10
2022-10-01T09:44:27.919Z,68.57
2022-10-01T09:46:58.072Z,67.55
2022-10-01T09:49:31.085Z,65.53
2022-10-01T09:52:02.832Z,65.20
2022-10-01T09:54:45.529Z,64.25
2022-10-01T09:57:21.685Z,68.32
2022-10-01T10:00:12.119Z,69.57
2022-10-01T10:02:49.149Z,70.25
2022-10-01T10:05:16.477Z,74.85
2022-10-01T10:07:50.789Z,76.13
2022-10-01T10:10:24.618Z,74.47
2022-10-01T10:12:57.834Z,80.97
2022-10-01T10:15:26.504Z,79.45
2022-10-01T10:17:54.615Z,77.20
2022-10-01T10:20:40.458Z,75.57
2022-10-01T10:23:08.323Z,73.65
2022-10-01T10:25:35.399Z,73.78
2022-10-01T10:28:03.687Z,72.47
2022-10-01T10:30:31.186Z,72.18
2022-10-01T10:33:05.730Z,74.65
2022-10-01T10:35:32.525Z,77.68
2022-10-01T10:37:59.434Z,82.53
2022-10-01T10:40:29.651Z,86.30
2022-10-01T10:42:57.836Z,85.20
2022-10-01T10:45:33.348Z,82.03
2022-10-01T10:48:01.613Z,83.85
2022-10-01T10:50:29.975Z,86.35
2022-10-01T10:52:57.591Z,83.32
2022-10-01T10:55:33.198Z,86.00
2022-10-01T10:58:14.271Z,90.70
2022-10-01T11:00:47.087Z,86.30
2022-10-01T11:03:18.027Z,83.10
2022-10-01T11:05:45.075Z,86.25
2022-10-01T11:08:17.670Z,87.32
2022-10-01T11:10:49.705Z,88.10
2022-10-01T11:13:22.422Z,87.50
2022-10-01T11:15:52.039Z,82.43
2022-10-01T11:18:31.164Z,84.50
2022-10-01T11:21:16.774Z,85.05
2022-10-01T11:23:55.712Z,82.82
2022-10-01T11:26:30.501Z,85.63
2022-10-01T11:29:03.067Z,89.18
2022-10-01T11:31:36.033Z,81.38
2022-10-01T11:34:18.470Z,87.25
2022-10-01T11:37:08.155Z,88.63
2022-10-01T11:39:35.763Z,82.05
2022-10-01T11:42:05.152Z,82.60
2022-10-01T11:44:34.897Z,87.80
2022-10-01T11:47:03.943Z,84.10
2022-10-01T11:49:50.285Z,75.65
2022-10-01T11:52:36.088Z,80.68
2022-10-01T11:55:23.001Z,84.68
2022-10-01T11:58:11.528Z,75.65
2022-10-01T12:00:39.453Z,74.18
2022-10-01T12:03:07.167Z,66.20
2022-10-01T12:05:34.574Z,57.03
2022-10-01T12:08:12.819Z,55.65
2022-10-01T12:10:49.707Z,57.30
2022-10-01T12:13:16.567Z,49.28
2022-10-01T12:15:53.236Z,49.83
2022-10-01T12:18:24.416Z,45.65
2022-10-01T12:20:56.131Z,49.35
2022-10-01T12:23:26.878Z,45.50
2022-10-01T12:28:26.071Z,47.83
2022-10-01T12:31:00.432Z,45.22
2022-10-01T12:33:28.140Z,44.75
2022-10-01T12:36:09.638Z,43.72
2022-10-01T12:38:55.644Z,47.47
2022-10-01T12:41:42.201Z,46.35
2022-10-01T12:44:33.862Z,40.70
2022-10-01T12:47:04.095Z,46.58
2022-10-01T12:49:43.592Z,45.28
2022-10-01T12:52:10.520Z,43.65
2022-10-01T12:54:43.568Z,43.67
2022-10-01T12:57:25.831Z,40.63
2022-10-01T13:00:09.476Z,39.20
2022-10-01T13:02:39.499Z,37.10
2022-10-01T13:05:16.152Z,36.45
2022-10-01T13:08:01.548Z,38.55
2022-10-01T13:10:49.052Z,38.28
2022-10-01T13:13:25.687Z,39.90
2022-10-01T13:16:00.001Z,40.45
2022-10-01T13:18:29.668Z,37.80
2022-10-01T13:21:15.107Z,37.28
2022-10-01T13:23:51.637Z,34.45
2022-10-01T13:26:35.721Z,40.78
2022-10-01T13:29:11.885Z,37.20
2022-10-01T13:31:40.886Z,33.15
2022-10-01T13:34:26.572Z,33.88
2022-10-01T13:36:53.581Z,30.13
2022-10-01T13:39:24.232Z,36.40
2022-10-01T13:44:23.426Z,37.33
2022-10-01T13:46:56.221Z,33.85
2022-10-01T13:49:30.563Z,30.73
2022-10-01T13:51:58.664Z,32.47
2022-10-01T13:54:28.706Z,31.80
2022-10-01T13:56:55.883Z,33.17
2022-10-01T13:59:22.993Z,33.60
2022-10-01T14:01:50.190Z,32.58
2022-10-01T14:04:20.000Z,31.92
2022-10-01T14:06:55.216Z,30.60
2022-10-01T14:09:25.277Z,40.15
2022-10-01T14:12:32.919Z,35.95
2022-10-01T14:15:20.864Z,31.50
2022-10-01T14:17:50.426Z,31.42
2022-10-01T14:20:30.781Z,37.13
2022-10-01T14:23:09.704Z,31.65
2022-10-01T14:25:39.650Z,39.13
2022-10-01T14:28:25.127Z,33.50
2022-10-01T14:30:54.955Z,36.67
2022-10-01T14:33:44.232Z,29.33
2022-10-01T14:36:19.189Z,30.30
2022-10-01T14:38:46.340Z,29.77
2022-10-01T14:41:20.560Z,28.17
2022-10-01T14:43:47.934Z,28.67
2022-10-01T14:46:16.894Z,28.83
2022-10-01T14:48:44.634Z,27.90
2022-10-01T14:51:24.097Z,32.45
2022-10-01T14:53:51.920Z,29.25
2022-10-01T14:56:18.848Z,34.03
2022-10-01T14:58:47.862Z,28.15
2022-10-01T15:01:21.880Z,33.15
2022-10-01T15:03:52.770Z,29.85
2022-10-01T15:06:21.724Z,27.20
2022-10-01T15:08:50.274Z,32.35
2022-10-01T15:11:21.812Z,28.35
2022-10-01T15:13:50.053Z,34.33
2022-10-01T15:16:24.521Z,30.67
2022-10-01T15:18:53.595Z,36.50
2022-10-01T15:21:27.018Z,35.75
2022-10-01T15:23:54.176Z,33.53
2022-10-01T15:26:30.202Z,30.48
2022-10-01T15:29:08.140Z,31.23
2022-10-01T15:31:35.647Z,30.05
2022-10-01T15:34:03.646Z,33.60
2022-10-01T15:36:30.743Z,36.13
2022-10-01T15:38:58.305Z,36.03
2022-10-01T15:41:33.459Z,33.15
2022-10-01T15:44:05.306Z,30.17
2022-10-01T15:46:35.947Z,31.42
2022-10-01T15:49:12.419Z,29.25
2022-10-01T15:51:45.109Z,38.78
2022-10-01T15:54:17.489Z,33.50
2022-10-01T15:56:47.181Z,31.25
2022-10-01T15:59:17.934Z,30.45
2022-10-01T16:01:47.764Z,28.95
2022-10-01T16:04:15.112Z,34.72
2022-10-01T16:06:49.912Z,34.92
2022-10-01T16:09:31.019Z,34.00
2022-10-01T16:11:59.317Z,35.25
2022-10-01T16:14:34.820Z,33.08
2022-10-01T16:17:17.156Z,33.53
2022-10-01T16:19:45.148Z,31.40
2022-10-01T16:22:21.240Z,34.83
2022-10-01T16:24:49.807Z,33.47
2022-10-01T16:27:19.069Z,41.25
2022-10-01T16:29:50.289Z,43.45
2022-10-01T16:32:17.509Z,39.08
2022-10-01T16:34:44.383Z,35.15
2022-10-01T16:37:11.407Z,43.13
2022-10-01T16:39:38.355Z,38.22
2022-10-01T16:42:23.246Z,37.22
2022-10-01T16:44:51.495Z,30.23
2022-10-01T16:47:18.627Z,37.88
2022-10-01T16:49:47.475Z,37.17
2022-10-01T16:52:16.681Z,39.95
2022-10-01T16:54:45.089Z,30.95
2022-10-01T16:57:12.252Z,34.28
2022-10-01T16:59:39.424Z,34.28
2022-10-01T17:02:10.487Z,36.47
2022-10-01T17:04:37.333Z,73.40
2022-10-01T17:07:04.102Z,90.18
2022-10-01T17:09:31.635Z,90.43
2022-10-01T17:11:58.596Z,82.68
2022-10-01T17:14:25.846Z,69.10
2022-10-01T17:16:53.568Z,83.65
2022-10-01T17:19:20.994Z,99.95
2022-10-01T17:21:48.127Z,142.32
2022-10-01T17:24:15.080Z,173.60
2022-10-01T17:26:43.063Z,161.77
2022-10-01T17:29:10.193Z,157.68
2022-10-01T17:31:38.261Z,133.75
2022-10-01T17:34:05.122Z,148.93
2022-10-01T17:36:32.455Z,148.52
2022-10-01T17:38:59.465Z,146.20
2022-10-01T17:41:26.819Z,140.70
2022-10-01T17:43:53.770Z,124.68
2022-10-01T17:46:20.943Z,122.88
2022-10-01T17:48:49.703Z,106.35
2022-10-01T17:51:17.202Z,118.47
2022-10-01T17:53:44.421Z,109.43
2022-10-01T17:56:16.165Z,102.88
2022-10-01T17:58:45.670Z,102.05
2022-10-01T18:01:17.687Z,98.33
2022-10-01T18:03:44.697Z,116.13
2022-10-01T18:06:16.592Z,94.72
2022-10-01T18:09:01.200Z,106.78
2022-10-01T18:11:29.027Z,111.88
2022-10-01T18:13:56.278Z,94.78
2022-10-01T18:16:23.857Z,101.90
2022-10-01T18:19:52.430Z,99.45
2022-10-01T18:21:45.418Z,129.73
2022-10-01T18:24:12.274Z,118.80
2022-10-01T18:26:39.838Z,116.80
2022-10-01T18:29:06.831Z,118.05
2022-10-01T18:31:38.573Z,116.22
2022-10-01T18:34:11.813Z,124.68
2022-10-01T18:37:01.170Z,124.40
2022-10-01T18:39:37.219Z,120.47
2022-10-01T18:42:10.662Z,112.03
2022-10-01T18:44:37.425Z,95.25
2022-10-01T18:47:10.678Z,80.30
2022-10-01T18:49:52.806Z,72.63
2022-10-01T18:52:31.956Z,67.90
2022-10-01T18:55:18.937Z,62.13
2022-10-01T18:57:48.222Z,66.25
2022-10-01T19:00:17.129Z,53.38
2022-10-01T19:03:04.488Z,53.08
2022-10-01T19:05:40.591Z,54.05
2022-10-01T19:08:18.166Z,45.25
2022-10-01T19:10:58.757Z,50.50
2022-10-01T19:15:53.199Z,45.53
2022-10-01T19:18:38.148Z,39.85
2022-10-01T19:21:20.671Z,37.95
2022-10-01T19:23:47.487Z,37.50
2022-10-01T19:26:47.102Z,31.50
2022-10-01T19:29:14.147Z,32.95
2022-10-01T19:31:41.007Z,33.38
2022-10-01T19:34:08.269Z,25.48
2022-10-01T19:36:40.391Z,25.10
2022-10-01T19:39:11.419Z,23.13
2022-10-01T19:41:41.297Z,25.08
2022-10-01T19:44:17.062Z,28.50
2022-10-01T19:46:45.981Z,27.50
2022-10-01T19:49:18.542Z,31.88
2022-10-01T19:51:47.243Z,27.63
2022-10-01T19:54:17.047Z,29.33
2022-10-01T19:56:46.607Z,27.87
2022-10-01T19:59:14.780Z,27.48
2022-10-01T20:01:50.703Z,28.15
2022-10-01T20:04:38.231Z,26.55
2022-10-01T20:07:07.724Z,26.17
2022-10-01T20:09:50.943Z,24.50
2022-10-01T20:12:40.590Z,26.13
2022-10-01T20:15:27.714Z,25.17
2022-10-01T20:18:13.321Z,25.92
2022-10-01T20:20:43.675Z,21.92
2022-10-01T20:23:26.108Z,21.50
2022-10-01T20:26:16.015Z,27.70
2022-10-01T20:28:52.064Z,22.53
2022-10-01T20:31:19.018Z,20.27
2022-10-01T20:33:56.360Z,23.88
2022-10-01T20:36:23.123Z,19.45
2022-10-01T20:38:53.918Z,22.70
2022-10-01T20:41:23.141Z,24.48
2022-10-01T20:43:55.784Z,23.73
2022-10-01T20:46:34.899Z,19.67
2022-10-01T20:49:04.474Z,23.80
2022-10-01T20:51:49.742Z,21.88
2022-10-01T20:54:23.203Z,26.15
2022-10-01T20:57:10.331Z,23.05
2022-10-01T20:59:39.104Z,21.33
2022-10-01T21:02:19.885Z,22.30
2022-10-01T21:05:05.171Z,24.20
2022-10-01T21:07:31.877Z,23.45
2022-10-01T21:10:03.854Z,19.75
2022-10-01T21:12:35.584Z,19.58
2022-10-01T21:15:02.632Z,20.88
2022-10-01T21:17:36.085Z,19.58
2022-10-01T21:20:21.637Z,21.67
2022-10-01T21:22:54.340Z,18.95
2022-10-01T21:25:28.500Z,23.30
2022-10-01T21:28:13.661Z,21.80
2022-10-01T21:31:03.901Z,18.67
2022-10-01T21:33:38.488Z,17.58
2022-10-01T21:36:16.104Z,19.00
2022-10-01T21:38:45.840Z,18.63
2022-10-01T21:41:21.573Z,20.40
2022-10-01T21:43:56.569Z,24.60
2022-10-01T21:46:23.658Z,18.55
2022-10-01T21:49:22.760Z,22.35
2022-10-01T21:51:58.685Z,18.42
2022-10-01T21:54:37.721Z,21.00
2022-10-01T21:57:07.621Z,20.75
2022-10-01T21:59:53.223Z,18.02
2022-10-01T22:02:37.989Z,21.45
2022-10-01T22:05:15.541Z,22.38
2022-10-01T22:07:47.772Z,26.90
2022-10-01T22:10:36.110Z,25.67
2022-10-01T22:13:04.597Z,23.85
2022-10-01T22:15:39.991Z,22.88
2022-10-01T22:18:08.196Z,24.90
2022-10-01T22:20:35.191Z,26.98
2022-10-01T22:23:06.689Z,25.33
2022-10-01T22:25:34.841Z,24.15
2022-10-01T22:28:03.551Z,18.17
2022-10-01T22:30:33.839Z,22.35
2022-10-01T22:33:00.673Z,18.05
2022-10-01T22:35:32.758Z,17.42
2022-10-01T22:38:05.323Z,15.15
2022-10-01T22:40:39.141Z,14.35
2022-10-01T22:43:08.306Z,14.52
2022-10-01T22:45:40.979Z,14.55
2022-10-01T22:48:19.718Z,12.55
2022-10-01T22:50:52.951Z,17.65
2022-10-01T22:53:19.769Z,11.70
2022-10-01T22:55:53.693Z,12.77
2022-10-01T22:58:21.263Z,15.25
2022-10-01T23:00:53.780Z,12.43
2022-10-01T23:03:36.038Z,11.25
2022-10-01T23:06:15.352Z,8.52
2022-10-01T23:08:45.663Z,10.98
2022-10-01T23:11:15.564Z,11.48
2022-10-01T23:13:56.854Z,9.87
2022-10-01T23:16:23.700Z,10.48
2022-10-01T23:19:08.914Z,9.75
2022-10-01T23:21:53.056Z,10.15
2022-10-01T23:24:35.048Z,9.30
2022-10-01T23:27:04.934Z,9.18
2022-10-01T23:29:34.560Z,8.47
2022-10-01T23:32:16.526Z,8.23
2022-10-01T23:34:57.542Z,9.73
2022-10-01T23:37:27.401Z,8.85
2022-10-01T23:40:03.150Z,9.93
2022-10-01T23:42:33.775Z,8.57
2022-10-01T23:45:00.507Z,8.38
2022-10-01T23:47:31.237Z,7.50
2022-10-01T23:52:45.419Z,9.55
2022-10-01T23:55:33.564Z,14.38
2022-10-01T23:58:03.449Z,9.43
